Seneca, South Dakota
Current Conditions -  °F | °C
As of 6:52 PM on Monday 20 Oct 2014 (Local Time) from KMBG Reporting Station
Clear Clear  
Wind Chill: 16°   Ceiling: Unl
Heat Index: 16°   Visibility: 10mi
Dew Point:   Wind: 12mph
Humidity: 44%   Direction: 120°ESE
Pressure: 29.93"   Gusts: NA
Location:  45.06°N, 99.51°W
Report Text: KMBG 202352Z AUTO 12010KT 10SM CLR 16/03 A2993 RMK AO2 SLP142 T01560033 10233 20156 56008
Loading
Personal Weather Stations






























Interactive Weather Map
Tropical Storm Tracking
New forecast layout! Learn more

10-Day Weather Forecast

Advertisements
Track Severe Weather on mobile